Weather at Quebec Jean Lesage International Airport

Public forecast

Using degrees Celsius for public forecast. Weather courtesy of forecast.io.

Current aviation weather report (METAR) for Quebec Jean Lesage International Airport

Retrieved 2020/10/27 22:00 UTC (47 minutes ago):

CYQB 272200Z 29004KT 260V320 15SM FEW016 BKN033 OVC100 M01/M06 A3020 RMK SC1SC7AC1 SC TR PRESRR SLP231

Aviation forecast (TAF) for Quebec Jean Lesage International Airport

Retrieved 2020/10/27 18:42 UTC (4 hours ago):

TAF TAF CYQB 271739Z 2718/2818 28007KT P6SM BKN030 BKN240 TEMPO 2718/2724 SCT030 BKN240 FM280000 28005KT P6SM FEW030 SCT120 BECMG 2800/2802 34005KT BECMG 2808/2810 02005KT FM281500 06008KT P6SM BKN060 BKN140 RMK NXT FCST BY 280000Z